createdAt,value
2023-01-17T00:00:10.710Z,2
2023-01-17T00:01:10.663Z,1
2023-01-17T00:02:10.683Z,1
2023-01-17T00:03:10.652Z,1
2023-01-17T00:04:10.714Z,1
2023-01-17T00:05:10.698Z,1
2023-01-17T00:06:10.667Z,1
2023-01-17T00:07:10.666Z,1
2023-01-17T00:08:10.648Z,1
2023-01-17T00:09:10.644Z,1
2023-01-17T00:10:10.679Z,1
2023-01-17T00:11:10.650Z,1
2023-01-17T00:12:10.655Z,1
2023-01-17T00:13:10.650Z,1
2023-01-17T00:14:10.649Z,1
2023-01-17T00:15:10.664Z,1
2023-01-17T00:16:10.692Z,1
2023-01-17T00:17:10.668Z,1
2023-01-17T00:18:10.689Z,1
2023-01-17T00:19:10.639Z,1
2023-01-17T00:20:10.682Z,1
2023-01-17T00:21:10.689Z,1
2023-01-17T00:22:10.655Z,1
2023-01-17T00:23:10.696Z,1
2023-01-17T00:24:10.645Z,1
2023-01-17T00:25:10.674Z,1
2023-01-17T00:26:10.650Z,1
2023-01-17T00:27:10.643Z,1
2023-01-17T00:28:10.662Z,1
2023-01-17T00:29:10.646Z,1
2023-01-17T00:30:10.662Z,1
2023-01-17T00:31:10.725Z,1
2023-01-17T00:32:10.647Z,1
2023-01-17T00:33:10.644Z,2
2023-01-17T00:34:10.638Z,2
2023-01-17T00:35:10.650Z,2
2023-01-17T00:36:10.660Z,2
2023-01-17T00:37:10.672Z,2
2023-01-17T00:38:10.660Z,2
2023-01-17T00:39:10.656Z,2
2023-01-17T00:40:10.663Z,2
2023-01-17T00:41:10.928Z,2
2023-01-17T00:42:10.669Z,2
2023-01-17T00:43:10.655Z,2
2023-01-17T00:44:10.646Z,2
2023-01-17T00:45:10.681Z,2
2023-01-17T00:46:10.747Z,1
2023-01-17T00:47:10.644Z,2
2023-01-17T00:48:10.687Z,2
2023-01-17T00:49:10.696Z,2
2023-01-17T00:50:10.679Z,2
2023-01-17T00:51:10.652Z,2
2023-01-17T00:52:10.679Z,2
2023-01-17T00:53:10.655Z,2
2023-01-17T00:54:10.652Z,2
2023-01-17T00:55:10.729Z,2
2023-01-17T00:56:10.645Z,2
2023-01-17T00:57:10.647Z,1
2023-01-17T00:58:10.641Z,2
2023-01-17T00:59:10.653Z,2
2023-01-17T01:00:10.726Z,2
2023-01-17T01:01:10.880Z,2
2023-01-17T01:02:10.798Z,2
2023-01-17T01:03:10.637Z,2
2023-01-17T01:04:10.638Z,2
2023-01-17T01:05:10.658Z,1
2023-01-17T01:06:10.644Z,2
2023-01-17T01:07:10.686Z,2
2023-01-17T01:08:10.661Z,1
2023-01-17T01:09:10.644Z,2
2023-01-17T01:10:10.667Z,2
2023-01-17T01:11:10.646Z,1
2023-01-17T01:12:10.653Z,2
2023-01-17T01:13:10.673Z,2
2023-01-17T01:14:10.651Z,2
2023-01-17T01:15:10.665Z,2
2023-01-17T01:16:10.654Z,1
2023-01-17T01:17:10.644Z,1
2023-01-17T01:18:10.634Z,2
2023-01-17T01:19:10.671Z,2
2023-01-17T01:20:10.663Z,2
2023-01-17T01:21:10.642Z,2
2023-01-17T01:22:10.655Z,2
2023-01-17T01:23:10.649Z,2
2023-01-17T01:24:10.643Z,2
2023-01-17T01:25:10.668Z,1
2023-01-17T01:26:10.654Z,2
2023-01-17T01:27:10.641Z,2
2023-01-17T01:28:10.666Z,2
2023-01-17T01:29:10.643Z,2
2023-01-17T01:30:10.684Z,2
2023-01-17T01:31:10.702Z,1
2023-01-17T01:32:10.648Z,2
2023-01-17T01:33:10.646Z,2
2023-01-17T01:34:10.670Z,2
2023-01-17T01:35:10.664Z,1
2023-01-17T01:36:10.652Z,1
2023-01-17T01:37:10.659Z,1
2023-01-17T01:38:10.655Z,1
2023-01-17T01:39:10.631Z,1
2023-01-17T01:40:10.657Z,1
2023-01-17T01:41:10.640Z,1
2023-01-17T01:42:10.634Z,1
2023-01-17T01:43:10.636Z,1
2023-01-17T01:44:10.641Z,1
2023-01-17T01:45:10.663Z,1
2023-01-17T01:46:10.643Z,1
2023-01-17T01:47:10.638Z,1
2023-01-17T01:48:10.640Z,2
2023-01-17T01:49:10.643Z,1
2023-01-17T01:50:10.690Z,2
2023-01-17T01:51:10.632Z,1
2023-01-17T01:52:10.663Z,1
2023-01-17T01:53:10.655Z,1
2023-01-17T01:54:10.722Z,1
2023-01-17T01:55:10.658Z,1
2023-01-17T01:56:10.641Z,1
2023-01-17T01:57:10.653Z,1
2023-01-17T01:58:10.640Z,1
2023-01-17T01:59:10.654Z,1
2023-01-17T02:00:10.647Z,2
2023-01-17T02:01:10.864Z,2
2023-01-17T02:02:10.641Z,1
2023-01-17T02:03:10.638Z,1
2023-01-17T02:04:10.681Z,1
2023-01-17T02:05:10.662Z,1
2023-01-17T02:06:10.655Z,1
2023-01-17T02:07:10.683Z,1
2023-01-17T02:08:10.651Z,1
2023-01-17T02:09:10.631Z,1
2023-01-17T02:10:10.644Z,1
2023-01-17T02:11:10.680Z,1
2023-01-17T02:12:10.650Z,1
2023-01-17T02:13:10.628Z,1
2023-01-17T02:14:10.654Z,1
2023-01-17T02:15:10.651Z,1
2023-01-17T02:16:10.681Z,1
2023-01-17T02:17:10.647Z,1
2023-01-17T02:18:10.638Z,1
2023-01-17T02:19:10.636Z,1
2023-01-17T02:20:10.658Z,1
2023-01-17T02:21:10.662Z,1
2023-01-17T02:22:10.635Z,1
2023-01-17T02:23:10.649Z,1
2023-01-17T02:24:10.642Z,1
2023-01-17T02:25:10.649Z,1
2023-01-17T02:26:10.638Z,1
2023-01-17T02:27:10.642Z,1
2023-01-17T02:28:10.635Z,1
2023-01-17T02:29:10.699Z,2
2023-01-17T02:30:10.705Z,1
2023-01-17T02:31:10.697Z,1
2023-01-17T02:32:10.692Z,1
2023-01-17T02:33:10.681Z,1
2023-01-17T02:34:10.709Z,1
2023-01-17T02:35:10.850Z,1
2023-01-17T02:36:10.683Z,1
2023-01-17T02:37:10.754Z,1
2023-01-17T02:38:10.747Z,1
2023-01-17T02:39:10.704Z,1
2023-01-17T02:40:10.993Z,1
2023-01-17T02:41:10.836Z,1
2023-01-17T02:42:10.957Z,1
2023-01-17T02:43:10.692Z,1
2023-01-17T02:44:10.728Z,1
2023-01-17T02:45:10.796Z,2
2023-01-17T02:46:10.754Z,2
2023-01-17T02:47:10.712Z,2
2023-01-17T02:48:10.697Z,2
2023-01-17T02:49:10.689Z,2
2023-01-17T02:50:10.713Z,2
2023-01-17T02:51:10.692Z,2
2023-01-17T02:52:10.760Z,2
2023-01-17T02:53:10.683Z,2
2023-01-17T02:54:10.679Z,2
2023-01-17T02:55:10.700Z,2
2023-01-17T02:56:10.722Z,2
2023-01-17T02:57:10.695Z,2
2023-01-17T02:58:10.691Z,2
2023-01-17T02:59:10.692Z,2
2023-01-17T03:00:10.707Z,2
2023-01-17T03:01:10.889Z,2
2023-01-17T03:02:10.805Z,2
2023-01-17T03:03:10.678Z,2
2023-01-17T03:04:10.679Z,2
2023-01-17T03:05:10.691Z,2
2023-01-17T03:06:10.686Z,2
2023-01-17T03:07:10.680Z,2
2023-01-17T03:08:10.685Z,2
2023-01-17T03:09:10.708Z,3
2023-01-17T03:10:10.677Z,2
2023-01-17T03:11:10.681Z,2
2023-01-17T03:12:10.684Z,3
2023-01-17T03:13:10.677Z,2
2023-01-17T03:14:10.683Z,2
2023-01-17T03:15:15.910Z,3
2023-01-17T03:16:12.650Z,3
2023-01-17T03:17:10.683Z,2
2023-01-17T03:18:10.683Z,3
2023-01-17T03:19:10.703Z,2
2023-01-17T03:20:10.676Z,2
2023-01-17T03:21:10.697Z,2
2023-01-17T03:22:10.771Z,2
2023-01-17T03:23:10.754Z,2
2023-01-17T03:24:10.705Z,3
2023-01-17T03:25:10.662Z,3
2023-01-17T03:26:10.671Z,2
2023-01-17T03:27:10.674Z,2
2023-01-17T03:28:10.672Z,3
2023-01-17T03:29:10.708Z,2
2023-01-17T03:30:10.679Z,3
2023-01-17T03:31:10.669Z,2
2023-01-17T03:32:10.671Z,2
2023-01-17T03:33:10.669Z,2
2023-01-17T03:34:10.693Z,3
2023-01-17T03:35:10.674Z,2
2023-01-17T03:36:10.674Z,2
2023-01-17T03:37:10.695Z,2
2023-01-17T03:38:10.673Z,2
2023-01-17T03:39:10.756Z,2
2023-01-17T03:40:10.686Z,2
2023-01-17T03:41:10.664Z,2
2023-01-17T03:42:10.693Z,2
2023-01-17T03:43:10.670Z,2
2023-01-17T03:44:10.674Z,3
2023-01-17T03:45:10.692Z,2
2023-01-17T03:46:10.750Z,2
2023-01-17T03:47:10.667Z,2
2023-01-17T03:48:10.698Z,2
2023-01-17T03:49:10.677Z,2
2023-01-17T03:50:10.677Z,2
2023-01-17T03:51:10.672Z,2
2023-01-17T03:52:10.684Z,2
2023-01-17T03:53:10.675Z,2
2023-01-17T03:54:10.701Z,2
2023-01-17T03:55:10.746Z,2
2023-01-17T03:56:10.665Z,2
2023-01-17T03:57:10.689Z,2
2023-01-17T03:58:10.680Z,2
2023-01-17T03:59:13.050Z,2
2023-01-17T04:00:10.682Z,2
2023-01-17T04:01:10.847Z,2
2023-01-17T04:02:10.860Z,2
2023-01-17T04:03:10.691Z,2
2023-01-17T04:04:10.703Z,2
2023-01-17T04:05:10.689Z,2
2023-01-17T04:06:10.688Z,2
2023-01-17T04:07:10.715Z,2
2023-01-17T04:08:10.709Z,2
2023-01-17T04:09:10.673Z,2
2023-01-17T04:10:10.669Z,2
2023-01-17T04:11:10.669Z,2
2023-01-17T04:12:10.676Z,2
2023-01-17T04:13:10.690Z,2
2023-01-17T04:14:10.668Z,2
2023-01-17T04:15:13.650Z,2
2023-01-17T04:16:10.675Z,2
2023-01-17T04:17:10.664Z,2
2023-01-17T04:18:10.663Z,2
2023-01-17T04:19:10.668Z,2
2023-01-17T04:20:10.714Z,2
2023-01-17T04:21:10.683Z,2
2023-01-17T04:22:10.677Z,2
2023-01-17T04:23:10.674Z,2
2023-01-17T04:24:10.665Z,2
2023-01-17T04:25:10.714Z,2
2023-01-17T04:26:10.678Z,2
2023-01-17T04:27:10.690Z,2
2023-01-17T04:28:10.737Z,2
2023-01-17T04:29:10.658Z,2
2023-01-17T04:30:10.673Z,2
2023-01-17T04:31:10.784Z,2
2023-01-17T04:32:10.679Z,2
2023-01-17T04:33:10.670Z,2
2023-01-17T04:34:10.668Z,2
2023-01-17T04:35:10.683Z,2
2023-01-17T04:36:10.685Z,2
2023-01-17T04:37:10.673Z,2
2023-01-17T04:38:10.692Z,2
2023-01-17T04:39:10.662Z,3
2023-01-17T04:40:10.682Z,2
2023-01-17T04:41:10.672Z,2
2023-01-17T04:42:10.691Z,2
2023-01-17T04:43:10.654Z,2
2023-01-17T04:44:10.675Z,2
2023-01-17T04:45:10.661Z,2
2023-01-17T04:46:10.728Z,2
2023-01-17T04:47:10.765Z,2
2023-01-17T04:48:10.665Z,3
2023-01-17T04:49:10.662Z,2
2023-01-17T04:50:10.663Z,3
2023-01-17T04:51:10.665Z,2
2023-01-17T04:52:10.666Z,3
2023-01-17T04:53:10.676Z,3
2023-01-17T04:54:10.671Z,2
2023-01-17T04:55:10.679Z,2
2023-01-17T04:56:10.725Z,2
2023-01-17T04:57:10.669Z,3
2023-01-17T04:58:10.657Z,2
2023-01-17T04:59:10.666Z,2
2023-01-17T05:01:10.822Z,2
2023-01-17T05:02:10.717Z,3
2023-01-17T05:03:10.668Z,2
2023-01-17T05:04:10.671Z,2
2023-01-17T05:05:10.667Z,3
2023-01-17T05:06:10.684Z,2
2023-01-17T05:07:10.678Z,3
2023-01-17T05:08:10.671Z,2
2023-01-17T05:09:10.668Z,2
2023-01-17T05:10:10.693Z,2
2023-01-17T05:11:10.657Z,2
2023-01-17T05:12:10.693Z,3
2023-01-17T05:13:10.676Z,3
2023-01-17T05:14:10.664Z,3
2023-01-17T05:15:10.802Z,2
2023-01-17T05:16:10.719Z,3
2023-01-17T05:17:10.660Z,2
2023-01-17T05:18:10.650Z,2
2023-01-17T05:19:10.671Z,3
2023-01-17T05:20:10.672Z,2
2023-01-17T05:21:10.668Z,2
2023-01-17T05:22:10.676Z,3
2023-01-17T05:23:10.684Z,3
2023-01-17T05:24:10.666Z,2
2023-01-17T05:25:10.677Z,3
2023-01-17T05:26:10.658Z,2
2023-01-17T05:27:10.719Z,3
2023-01-17T05:28:10.658Z,2
2023-01-17T05:29:10.667Z,2
2023-01-17T05:30:10.680Z,3
2023-01-17T05:31:10.742Z,3
2023-01-17T05:32:10.688Z,2
2023-01-17T05:33:10.662Z,3
2023-01-17T05:34:10.663Z,2
2023-01-17T05:35:10.653Z,3
2023-01-17T05:36:10.877Z,3
2023-01-17T05:37:10.677Z,3
2023-01-17T05:38:10.658Z,3
2023-01-17T05:39:10.662Z,2
2023-01-17T05:40:10.674Z,2
2023-01-17T05:41:10.664Z,3
2023-01-17T05:42:10.684Z,3
2023-01-17T05:43:10.667Z,2
2023-01-17T05:44:10.684Z,2
2023-01-17T05:45:10.664Z,3
2023-01-17T05:46:10.745Z,2
2023-01-17T05:47:10.660Z,3
2023-01-17T05:48:10.654Z,2
2023-01-17T05:49:10.667Z,3
2023-01-17T05:50:10.668Z,3
2023-01-17T05:51:10.666Z,3
2023-01-17T05:52:10.679Z,3
2023-01-17T05:53:10.692Z,4
2023-01-17T05:54:10.669Z,4
2023-01-17T05:55:10.657Z,4
2023-01-17T05:56:10.658Z,7
2023-01-17T05:57:10.672Z,8
2023-01-17T05:58:10.692Z,5
2023-01-17T05:59:13.177Z,4
2023-01-17T06:00:10.683Z,4
2023-01-17T06:01:10.769Z,3
2023-01-17T06:02:10.686Z,3
2023-01-17T06:03:10.652Z,3
2023-01-17T06:04:10.689Z,3
2023-01-17T06:05:10.652Z,3
2023-01-17T06:06:10.707Z,4
2023-01-17T06:07:10.667Z,4
2023-01-17T06:08:10.671Z,4
2023-01-17T06:09:10.664Z,3
2023-01-17T06:10:10.648Z,3
2023-01-17T06:11:10.660Z,3
2023-01-17T06:13:10.660Z,3
2023-01-17T06:14:10.643Z,3
2023-01-17T06:15:10.645Z,3
2023-01-17T06:16:10.737Z,3
2023-01-17T06:17:10.650Z,2
2023-01-17T06:18:10.657Z,3
2023-01-17T06:19:10.656Z,3
2023-01-17T06:20:10.649Z,3
2023-01-17T06:21:10.656Z,2
2023-01-17T06:22:10.655Z,3
2023-01-17T06:23:10.674Z,3
2023-01-17T06:24:10.654Z,3
2023-01-17T06:25:10.682Z,3
2023-01-17T06:26:10.661Z,3
2023-01-17T06:27:10.647Z,4
2023-01-17T06:28:10.737Z,10
2023-01-17T06:29:10.683Z,6
2023-01-17T06:30:10.644Z,5
2023-01-17T06:32:10.662Z,3
2023-01-17T06:33:10.671Z,2
2023-01-17T06:34:10.660Z,2
2023-01-17T06:35:10.659Z,3
2023-01-17T06:36:10.649Z,2
2023-01-17T06:37:10.692Z,2
2023-01-17T06:39:10.991Z,2
2023-01-17T06:40:10.645Z,2
2023-01-17T06:41:10.659Z,2
2023-01-17T06:42:10.785Z,2
2023-01-17T06:43:10.654Z,2
2023-01-17T06:44:10.647Z,2
2023-01-17T06:45:10.656Z,2
2023-01-17T06:46:10.713Z,2
2023-01-17T06:47:10.662Z,2
2023-01-17T06:48:10.660Z,2
2023-01-17T06:49:10.655Z,2
2023-01-17T06:50:10.654Z,2
2023-01-17T06:51:10.647Z,2
2023-01-17T06:52:10.654Z,2
2023-01-17T06:53:10.686Z,2
2023-01-17T06:54:10.667Z,2
2023-01-17T06:55:10.654Z,2
2023-01-17T06:56:10.647Z,2
2023-01-17T06:57:10.641Z,2
2023-01-17T06:58:10.687Z,2
2023-01-17T06:59:10.682Z,3
2023-01-17T07:01:10.805Z,3
2023-01-17T07:02:10.654Z,2
2023-01-17T07:03:10.663Z,2
2023-01-17T07:04:10.709Z,2
2023-01-17T07:05:10.645Z,2
2023-01-17T07:06:10.660Z,2
2023-01-17T07:07:10.640Z,2
2023-01-17T07:08:10.673Z,2
2023-01-17T07:09:10.646Z,2
2023-01-17T07:10:10.645Z,3
2023-01-17T07:11:10.643Z,2
2023-01-17T07:12:10.655Z,2
2023-01-17T07:13:10.642Z,2
2023-01-17T07:14:10.647Z,2
2023-01-17T07:15:10.655Z,2
2023-01-17T07:16:10.730Z,2
2023-01-17T07:17:10.646Z,3
2023-01-17T07:18:10.668Z,3
2023-01-17T07:19:10.766Z,3
2023-01-17T07:20:10.646Z,3
2023-01-17T07:21:10.658Z,3
2023-01-17T07:22:10.649Z,3
2023-01-17T07:23:10.665Z,3
2023-01-17T07:24:10.650Z,3
2023-01-17T07:25:10.657Z,3
2023-01-17T07:26:10.661Z,3
2023-01-17T07:27:10.647Z,3
2023-01-17T07:28:10.657Z,3
2023-01-17T07:29:10.649Z,3
2023-01-17T07:30:10.669Z,3
2023-01-17T07:31:10.730Z,3
2023-01-17T07:32:10.667Z,3
2023-01-17T07:33:10.669Z,3
2023-01-17T07:34:10.641Z,2
2023-01-17T07:35:10.647Z,3
2023-01-17T07:36:10.648Z,3
2023-01-17T07:37:10.665Z,3
2023-01-17T07:38:10.664Z,3
2023-01-17T07:39:10.667Z,3
2023-01-17T07:40:10.658Z,3
2023-01-17T07:41:11.163Z,2
2023-01-17T07:42:10.663Z,3
2023-01-17T07:43:10.725Z,3
2023-01-17T07:44:10.640Z,2
2023-01-17T07:45:10.647Z,3
2023-01-17T07:46:10.646Z,3
2023-01-17T07:47:10.652Z,3
2023-01-17T07:48:10.657Z,3
2023-01-17T07:49:10.647Z,3
2023-01-17T07:50:10.648Z,3
2023-01-17T07:51:10.638Z,3
2023-01-17T07:52:10.646Z,3
2023-01-17T07:53:10.669Z,3
2023-01-17T07:54:10.671Z,3
2023-01-17T07:55:10.645Z,3
2023-01-17T07:56:10.661Z,3
2023-01-17T07:57:10.639Z,3
2023-01-17T07:58:10.668Z,3
2023-01-17T07:59:10.657Z,3
2023-01-17T08:00:10.659Z,3
2023-01-17T08:01:10.732Z,3
2023-01-17T08:02:10.637Z,3
2023-01-17T08:03:10.729Z,2
2023-01-17T08:04:10.690Z,3
2023-01-17T08:05:10.655Z,3
2023-01-17T08:06:10.636Z,3
2023-01-17T08:07:10.653Z,3
2023-01-17T08:08:10.646Z,3
2023-01-17T08:09:10.669Z,3
2023-01-17T08:10:10.638Z,3
2023-01-17T08:11:10.641Z,3
2023-01-17T08:12:10.713Z,3
2023-01-17T08:13:10.658Z,3
2023-01-17T08:14:10.639Z,3
2023-01-17T08:15:10.642Z,4
2023-01-17T08:16:10.677Z,4
2023-01-17T08:17:10.650Z,5
2023-01-17T08:18:10.651Z,5
2023-01-17T08:19:10.668Z,5
2023-01-17T08:20:10.642Z,5
2023-01-17T08:21:10.702Z,5
2023-01-17T08:22:10.641Z,5
2023-01-17T08:23:10.649Z,5
2023-01-17T08:24:10.643Z,4
2023-01-17T08:25:10.637Z,4
2023-01-17T08:27:10.657Z,3
2023-01-17T08:28:10.667Z,3
2023-01-17T08:29:10.644Z,3
2023-01-17T08:30:10.637Z,3
2023-01-17T08:31:10.811Z,3
2023-01-17T08:32:10.639Z,2
2023-01-17T08:33:10.667Z,3
2023-01-17T08:34:10.663Z,3
2023-01-17T08:35:10.634Z,3
2023-01-17T08:36:10.638Z,3
2023-01-17T08:37:10.642Z,3
2023-01-17T08:38:10.677Z,3
2023-01-17T08:39:10.629Z,3
2023-01-17T08:40:10.650Z,2
2023-01-17T08:41:10.649Z,3
2023-01-17T08:42:10.652Z,3
2023-01-17T08:43:10.755Z,3
2023-01-17T08:44:10.634Z,3
2023-01-17T08:45:10.665Z,3
2023-01-17T08:46:10.717Z,3
2023-01-17T08:47:10.691Z,3
2023-01-17T08:48:10.637Z,4
2023-01-17T08:49:10.662Z,3
2023-01-17T08:50:10.692Z,3
2023-01-17T08:51:10.653Z,3
2023-01-17T08:52:10.643Z,3
2023-01-17T08:53:10.633Z,3
2023-01-17T08:54:10.654Z,3
2023-01-17T08:55:10.659Z,3
2023-01-17T08:56:10.638Z,3
2023-01-17T08:57:10.673Z,3
2023-01-17T08:58:10.628Z,3
2023-01-17T08:59:10.672Z,3
2023-01-17T09:00:10.628Z,3
2023-01-17T09:01:10.724Z,3
2023-01-17T09:02:10.707Z,3
2023-01-17T09:03:10.656Z,7
2023-01-17T09:04:10.730Z,60
2023-01-17T09:05:10.665Z,112
2023-01-17T09:06:10.644Z,75
2023-01-17T09:07:10.633Z,86
2023-01-17T09:08:10.623Z,38
2023-01-17T09:09:10.661Z,23
2023-01-17T09:10:10.645Z,11
2023-01-17T09:11:10.634Z,7
2023-01-17T09:12:10.638Z,6
2023-01-17T09:13:10.624Z,4
2023-01-17T09:14:10.648Z,4
2023-01-17T09:15:10.637Z,4
2023-01-17T09:16:10.740Z,3
2023-01-17T09:17:10.687Z,3
2023-01-17T09:18:10.656Z,3
2023-01-17T09:19:10.641Z,3
2023-01-17T09:20:10.642Z,3
2023-01-17T09:21:10.634Z,3
2023-01-17T09:22:10.644Z,3
2023-01-17T09:23:10.628Z,3
2023-01-17T09:24:10.664Z,3
2023-01-17T09:25:10.642Z,3
2023-01-17T09:26:10.769Z,3
2023-01-17T09:27:10.637Z,3
2023-01-17T09:28:10.631Z,3
2023-01-17T09:29:10.663Z,3
2023-01-17T09:30:10.650Z,3
2023-01-17T09:31:10.717Z,3
2023-01-17T09:32:10.636Z,3
2023-01-17T09:33:10.639Z,3
2023-01-17T09:34:10.640Z,3
2023-01-17T09:35:10.634Z,3
2023-01-17T09:36:10.674Z,3
2023-01-17T09:37:10.919Z,4
2023-01-17T09:38:10.900Z,3
2023-01-17T09:39:10.688Z,3
2023-01-17T09:40:10.636Z,3
2023-01-17T09:41:10.634Z,4
2023-01-17T09:42:10.638Z,3
2023-01-17T09:43:10.666Z,4
2023-01-17T09:44:10.647Z,3
2023-01-17T09:45:10.642Z,3
2023-01-17T09:46:10.682Z,3
2023-01-17T09:47:10.706Z,3
2023-01-17T09:48:10.626Z,3
2023-01-17T09:49:10.660Z,4
2023-01-17T09:50:10.640Z,4
2023-01-17T09:51:10.620Z,3
2023-01-17T09:53:10.646Z,3
2023-01-17T09:54:10.644Z,3
2023-01-17T09:55:10.635Z,3
2023-01-17T09:56:10.650Z,3
2023-01-17T09:57:10.719Z,3
2023-01-17T09:58:10.648Z,3
2023-01-17T09:59:10.664Z,3
2023-01-17T10:00:10.646Z,3
2023-01-17T10:01:10.736Z,3
2023-01-17T10:02:10.881Z,3
2023-01-17T10:03:10.822Z,3
2023-01-17T10:04:10.691Z,4
2023-01-17T10:05:10.734Z,3
2023-01-17T10:06:10.637Z,4
2023-01-17T10:07:10.670Z,3
2023-01-17T10:08:10.637Z,3
2023-01-17T10:09:10.684Z,3
2023-01-17T10:10:10.647Z,3
2023-01-17T10:11:10.636Z,3
2023-01-17T10:12:10.632Z,4
2023-01-17T10:13:10.630Z,3
2023-01-17T10:14:10.658Z,4
2023-01-17T10:15:10.632Z,3
2023-01-17T10:16:10.630Z,3
2023-01-17T10:17:10.629Z,3
2023-01-17T10:18:19.102Z,3
2023-01-17T10:19:10.642Z,3
2023-01-17T10:20:10.623Z,3
2023-01-17T10:21:10.639Z,3
2023-01-17T10:22:10.645Z,3
2023-01-17T10:23:10.632Z,3
2023-01-17T10:24:10.667Z,3
2023-01-17T10:25:10.640Z,3
2023-01-17T10:26:10.625Z,3
2023-01-17T10:27:10.628Z,3
2023-01-17T10:28:10.622Z,3
2023-01-17T10:29:10.642Z,3
2023-01-17T10:30:10.649Z,3
2023-01-17T10:31:10.716Z,3
2023-01-17T10:32:10.645Z,3
2023-01-17T10:33:10.634Z,3
2023-01-17T10:34:10.635Z,3
2023-01-17T10:35:10.721Z,3
2023-01-17T10:36:10.637Z,3
2023-01-17T10:37:10.645Z,3
2023-01-17T10:38:10.668Z,3
2023-01-17T10:39:10.691Z,3
2023-01-17T10:40:10.641Z,3
2023-01-17T10:41:10.620Z,3
2023-01-17T10:42:10.652Z,3
2023-01-17T10:43:10.633Z,3
2023-01-17T10:44:10.661Z,3
2023-01-17T10:45:10.622Z,3
2023-01-17T10:46:10.908Z,3
2023-01-17T10:47:10.820Z,3
2023-01-17T10:48:10.645Z,3
2023-01-17T10:49:10.649Z,3
2023-01-17T10:50:10.620Z,3
2023-01-17T10:51:10.614Z,3
2023-01-17T10:52:10.619Z,3
2023-01-17T10:53:10.647Z,3
2023-01-17T10:54:10.651Z,3
2023-01-17T10:55:10.629Z,3
2023-01-17T10:56:10.636Z,4
2023-01-17T10:57:10.625Z,3
2023-01-17T10:58:10.627Z,3
2023-01-17T10:59:10.673Z,3
2023-01-17T11:00:10.636Z,3
2023-01-17T11:01:10.688Z,3
2023-01-17T11:02:10.762Z,2
2023-01-17T11:03:10.632Z,3
2023-01-17T11:04:10.648Z,3
2023-01-17T11:05:10.669Z,3
2023-01-17T11:06:10.650Z,2
2023-01-17T11:07:10.630Z,3
2023-01-17T11:08:10.629Z,2
2023-01-17T11:09:10.668Z,2
2023-01-17T11:10:10.664Z,2
2023-01-17T11:11:10.622Z,3
2023-01-17T11:12:10.621Z,3
2023-01-17T11:13:10.636Z,3
2023-01-17T11:14:10.630Z,3
2023-01-17T11:15:10.657Z,3
2023-01-17T11:16:10.723Z,3
2023-01-17T11:17:10.627Z,3
2023-01-17T11:18:10.631Z,3
2023-01-17T11:19:10.641Z,2
2023-01-17T11:20:10.647Z,3
2023-01-17T11:21:10.611Z,2
2023-01-17T11:22:10.649Z,2
2023-01-17T11:23:10.623Z,3
2023-01-17T11:24:10.636Z,3
2023-01-17T11:25:10.670Z,2
2023-01-17T11:26:10.680Z,2
2023-01-17T11:27:10.635Z,3
2023-01-17T11:28:10.624Z,2
2023-01-17T11:29:10.636Z,3
2023-01-17T11:30:10.638Z,2
2023-01-17T11:31:10.661Z,2
2023-01-17T11:32:10.632Z,3
2023-01-17T11:33:10.628Z,2
2023-01-17T11:34:10.622Z,3
2023-01-17T11:35:10.647Z,2
2023-01-17T11:36:10.626Z,2
2023-01-17T11:37:10.642Z,3
2023-01-17T11:38:10.651Z,2
2023-01-17T11:39:10.628Z,3
2023-01-17T11:40:10.674Z,3
2023-01-17T11:41:10.626Z,3
2023-01-17T11:42:10.648Z,2
2023-01-17T11:43:10.634Z,2
2023-01-17T11:44:10.635Z,2
2023-01-17T11:45:10.636Z,2
2023-01-17T11:46:17.064Z,2
2023-01-17T11:47:10.628Z,2
2023-01-17T11:48:10.630Z,2
2023-01-17T11:49:10.631Z,2
2023-01-17T11:50:10.662Z,2
2023-01-17T11:51:10.634Z,3
2023-01-17T11:52:10.626Z,3
2023-01-17T11:53:10.629Z,2
2023-01-17T11:54:10.613Z,2
2023-01-17T11:55:10.663Z,3
2023-01-17T11:56:10.627Z,3
2023-01-17T11:57:10.631Z,3
2023-01-17T11:58:10.624Z,3
2023-01-17T11:59:10.615Z,3
2023-01-17T12:00:10.652Z,2
2023-01-17T12:01:10.690Z,2
2023-01-17T12:02:10.623Z,3
2023-01-17T12:03:10.654Z,2
2023-01-17T12:04:10.629Z,2
2023-01-17T12:05:10.714Z,2
2023-01-17T12:06:10.614Z,2
2023-01-17T12:07:10.626Z,2
2023-01-17T12:08:10.639Z,2
2023-01-17T12:09:10.624Z,2
2023-01-17T12:10:10.659Z,2
2023-01-17T12:11:10.651Z,3
2023-01-17T12:12:10.616Z,3
2023-01-17T12:13:10.618Z,3
2023-01-17T12:14:10.614Z,2
2023-01-17T12:15:10.623Z,3
2023-01-17T12:16:10.674Z,3
2023-01-17T12:17:10.626Z,3
2023-01-17T12:18:10.627Z,2
2023-01-17T12:19:10.630Z,2
2023-01-17T12:20:10.628Z,2
2023-01-17T12:21:10.656Z,2
2023-01-17T12:22:10.622Z,2
2023-01-17T12:23:10.614Z,3
2023-01-17T12:24:10.652Z,3
2023-01-17T12:25:10.661Z,2
2023-01-17T12:26:10.681Z,2
2023-01-17T12:27:10.638Z,2
2023-01-17T12:28:10.637Z,2
2023-01-17T12:29:10.620Z,2
2023-01-17T12:30:10.622Z,2
2023-01-17T12:31:10.756Z,2
2023-01-17T12:32:10.635Z,2
2023-01-17T12:33:10.629Z,2
2023-01-17T12:34:10.609Z,2
2023-01-17T12:35:10.620Z,2
2023-01-17T12:36:10.630Z,2
2023-01-17T12:37:10.623Z,3
2023-01-17T12:38:14.149Z,3
2023-01-17T12:39:10.631Z,2
2023-01-17T12:40:10.639Z,2
2023-01-17T12:41:10.640Z,2
2023-01-17T12:42:10.647Z,2
2023-01-17T12:43:10.620Z,2
2023-01-17T12:44:10.627Z,2
2023-01-17T12:45:10.619Z,2
2023-01-17T12:47:10.628Z,2
2023-01-17T12:48:10.619Z,2
2023-01-17T12:49:10.619Z,2
2023-01-17T12:50:10.621Z,2
2023-01-17T12:51:10.638Z,2
2023-01-17T12:54:10.625Z,2
2023-01-17T12:55:10.637Z,2
2023-01-17T12:56:10.627Z,2
2023-01-17T12:57:13.165Z,2
2023-01-17T12:58:10.618Z,2
2023-01-17T12:59:10.627Z,2
2023-01-17T13:00:10.639Z,2
2023-01-17T13:01:10.718Z,2
2023-01-17T13:02:10.691Z,3
2023-01-17T13:03:10.826Z,3
2023-01-17T13:04:10.620Z,3
2023-01-17T13:05:10.623Z,3
2023-01-17T13:06:10.635Z,3
2023-01-17T13:07:10.754Z,3
2023-01-17T13:08:10.630Z,3
2023-01-17T13:09:10.622Z,3
2023-01-17T13:10:10.623Z,2
2023-01-17T13:11:10.650Z,3
2023-01-17T13:12:10.614Z,3
2023-01-17T13:13:10.638Z,3
2023-01-17T13:14:10.623Z,2
2023-01-17T13:15:10.618Z,2
2023-01-17T13:16:10.680Z,2
2023-01-17T13:17:10.627Z,2
2023-01-17T13:18:10.627Z,2
2023-01-17T13:19:10.615Z,3
2023-01-17T13:20:10.731Z,2
2023-01-17T13:21:10.645Z,2
2023-01-17T13:22:10.623Z,2
2023-01-17T13:23:10.613Z,3
2023-01-17T13:24:10.643Z,2
2023-01-17T13:25:10.649Z,2
2023-01-17T13:26:10.623Z,2
2023-01-17T13:27:10.657Z,2
2023-01-17T13:28:10.626Z,2
2023-01-17T13:29:10.613Z,2
2023-01-17T13:30:10.720Z,2
2023-01-17T13:31:10.649Z,2
2023-01-17T13:32:10.622Z,2
2023-01-17T13:33:26.612Z,2
2023-01-17T13:34:10.624Z,2
2023-01-17T13:35:10.624Z,2
2023-01-17T13:36:10.616Z,2
2023-01-17T13:37:10.627Z,2
2023-01-17T13:38:10.624Z,2
2023-01-17T13:39:10.622Z,2
2023-01-17T13:40:10.636Z,2
2023-01-17T13:41:10.637Z,2
2023-01-17T13:42:10.632Z,1
2023-01-17T13:43:10.623Z,1
2023-01-17T13:44:10.640Z,2
2023-01-17T13:45:10.632Z,2
2023-01-17T13:46:10.615Z,1
2023-01-17T13:47:10.621Z,1
2023-01-17T13:48:10.619Z,1
2023-01-17T13:49:10.618Z,1
2023-01-17T13:50:10.620Z,1
2023-01-17T13:51:10.638Z,1
2023-01-17T13:52:10.639Z,1
2023-01-17T13:53:10.664Z,1
2023-01-17T13:54:10.613Z,1
2023-01-17T13:55:10.651Z,1
2023-01-17T13:56:10.615Z,1
2023-01-17T13:57:10.673Z,1
2023-01-17T13:58:10.626Z,1
2023-01-17T13:59:10.609Z,2
2023-01-17T14:00:10.630Z,1
2023-01-17T14:01:10.686Z,1
2023-01-17T14:02:10.639Z,1
2023-01-17T14:03:10.715Z,2
2023-01-17T14:04:10.625Z,2
2023-01-17T14:05:10.615Z,2
2023-01-17T14:06:10.610Z,2
2023-01-17T14:07:10.621Z,2
2023-01-17T14:08:10.610Z,2
2023-01-17T14:09:10.633Z,2
2023-01-17T14:10:10.620Z,2
2023-01-17T14:11:10.607Z,2
2023-01-17T14:12:10.663Z,2
2023-01-17T14:13:10.608Z,1
2023-01-17T14:14:10.608Z,2
2023-01-17T14:15:10.642Z,1
2023-01-17T14:16:10.633Z,1
2023-01-17T14:17:10.635Z,1
2023-01-17T14:18:10.646Z,1
2023-01-17T14:19:10.618Z,1
2023-01-17T14:20:10.615Z,1
2023-01-17T14:21:10.653Z,1
2023-01-17T14:22:10.621Z,1
2023-01-17T14:23:10.613Z,1
2023-01-17T14:24:10.619Z,1
2023-01-17T14:25:10.637Z,1
2023-01-17T14:26:10.609Z,1
2023-01-17T14:27:10.653Z,1
2023-01-17T14:28:10.617Z,1
2023-01-17T14:29:10.640Z,1
2023-01-17T14:30:10.606Z,1
2023-01-17T14:31:10.616Z,1
2023-01-17T14:32:10.634Z,1
2023-01-17T14:33:10.617Z,1
2023-01-17T14:34:10.617Z,1
2023-01-17T14:35:10.621Z,1
2023-01-17T14:36:10.611Z,1
2023-01-17T14:37:10.630Z,1
2023-01-17T14:38:10.616Z,2
2023-01-17T14:40:10.632Z,2
2023-01-17T14:41:10.609Z,2
2023-01-17T14:42:10.630Z,2
2023-01-17T14:43:10.611Z,3
2023-01-17T14:44:10.613Z,3
2023-01-17T14:45:10.620Z,2
2023-01-17T14:46:10.655Z,2
2023-01-17T14:47:10.632Z,2
2023-01-17T14:48:10.619Z,2
2023-01-17T14:49:10.611Z,2
2023-01-17T14:50:10.679Z,2
2023-01-17T14:51:10.618Z,2
2023-01-17T14:52:10.639Z,2
2023-01-17T14:53:10.653Z,2
2023-01-17T14:54:10.608Z,2
2023-01-17T14:55:10.639Z,2
2023-01-17T14:56:10.607Z,2
2023-01-17T14:57:10.626Z,2